Sacramento, California
Traffic Map
Current Weather Conditions
Sacramento, California
Clear
Clear
12°
Feels Like: 12°
Wind Chill: 12° Ceiling: Unl
Heat Index: 12° Visibility: 10mi
Dew Point: Wind: 3mph
Humidity: 69% Direction: 20° (NNE)
Pressure: 29.92in Gusts: 0mph
Raw Report DataKSAC 030353Z 02003KT 10SM CLR 12/07 A2992 RMK AO2 SLP131 T01220067
Traffic Incident Summary
Active as of:
Severity:
Category:
InformationThere was an issue retrieving the traffic information for this location. Please try a different location or try again shortly.
Advertisements
Track Severe Weather on mobile